createdAt,value
2023-01-01T00:00:37.668Z,101386.00
2023-01-01T00:03:04.250Z,101378.75
2023-01-01T00:05:30.784Z,101382.19
2023-01-01T00:08:04.339Z,101379.38
2023-01-01T00:10:31.830Z,101387.31
2023-01-01T00:12:59.437Z,101385.59
2023-01-01T00:15:27.324Z,101387.72
2023-01-01T00:17:54.190Z,101396.84
2023-01-01T00:20:20.966Z,101392.34
2023-01-01T00:22:56.142Z,101390.91
2023-01-01T00:25:24.238Z,101388.69
2023-01-01T00:27:50.915Z,101383.59
2023-01-01T00:30:17.517Z,101387.19
2023-01-01T00:32:55.493Z,101385.53
2023-01-01T00:35:26.204Z,101380.06
2023-01-01T00:37:54.045Z,101372.81
2023-01-01T00:40:20.952Z,101372.91
2023-01-01T00:42:47.594Z,101390.56
2023-01-01T00:45:20.630Z,101392.44
2023-01-01T00:47:48.671Z,101389.88
2023-01-01T00:50:15.556Z,101389.13
2023-01-01T00:52:42.142Z,101391.88
2023-01-01T00:55:09.302Z,101391.19
2023-01-01T00:57:35.962Z,101393.94
2023-01-01T01:00:02.589Z,101387.81
2023-01-01T01:02:29.326Z,101387.88
2023-01-01T01:04:56.333Z,101390.50
2023-01-01T01:07:23.114Z,101378.06
2023-01-01T01:09:49.675Z,101381.53
2023-01-01T01:12:17.726Z,101385.97
2023-01-01T01:14:46.191Z,101389.50
2023-01-01T01:17:12.818Z,101389.44
2023-01-01T01:19:39.520Z,101389.38
2023-01-01T01:22:06.271Z,101388.31
2023-01-01T01:24:32.867Z,101389.03
2023-01-01T01:26:59.380Z,101395.09
2023-01-01T01:29:26.026Z,101392.31
2023-01-01T01:31:52.575Z,101393.25
2023-01-01T01:34:25.600Z,101400.28
2023-01-01T01:36:54.339Z,101388.88
2023-01-01T01:39:20.931Z,101384.00
2023-01-01T01:41:47.484Z,101388.88
2023-01-01T01:44:51.439Z,101396.41
2023-01-01T01:47:38.074Z,101391.19
2023-01-01T01:50:32.429Z,101384.91
2023-01-01T01:53:10.333Z,101377.66
2023-01-01T01:55:41.592Z,101374.09
2023-01-01T01:58:09.930Z,101384.66
2023-01-01T02:00:36.702Z,101388.16
2023-01-01T02:03:08.296Z,101387.19
2023-01-01T02:05:36.172Z,101390.56
2023-01-01T02:08:06.981Z,101393.16
2023-01-01T02:10:33.615Z,101401.13
2023-01-01T02:13:00.888Z,101388.78
2023-01-01T02:15:36.221Z,101396.78
2023-01-01T02:18:15.333Z,101395.09
2023-01-01T02:21:12.664Z,101384.66
2023-01-01T02:23:54.287Z,101389.09
2023-01-01T02:26:48.652Z,101391.78
2023-01-01T02:29:33.147Z,101397.09
2023-01-01T02:32:10.921Z,101404.06
2023-01-01T02:34:46.650Z,101407.59
2023-01-01T02:37:17.482Z,101403.09
2023-01-01T02:39:53.735Z,101397.88
2023-01-01T02:42:23.628Z,101406.69
2023-01-01T02:44:53.850Z,101406.72
2023-01-01T02:47:21.139Z,101403.31
2023-01-01T02:50:08.512Z,101411.38
2023-01-01T02:52:56.672Z,101415.03
2023-01-01T02:55:48.350Z,101404.44
2023-01-01T02:58:36.356Z,101399.13
2023-01-01T03:01:38.506Z,101390.25
2023-01-01T03:04:13.027Z,101391.19
2023-01-01T03:07:14.480Z,101385.91
2023-01-01T03:10:09.976Z,101387.56
2023-01-01T03:12:59.654Z,101388.44
2023-01-01T03:15:29.113Z,101385.00
2023-01-01T03:18:17.332Z,101393.91
2023-01-01T03:20:47.817Z,101395.88
2023-01-01T03:23:20.271Z,101387.25
2023-01-01T03:25:53.612Z,101391.78
2023-01-01T03:28:28.813Z,101392.75
2023-01-01T03:30:57.636Z,101396.19
2023-01-01T03:33:32.514Z,101397.13
2023-01-01T03:36:11.898Z,101389.13
2023-01-01T03:38:43.359Z,101386.53
2023-01-01T03:41:35.589Z,101394.47
2023-01-01T03:44:15.983Z,101389.28
2023-01-01T03:46:42.716Z,101389.38
2023-01-01T03:49:11.610Z,101384.31
2023-01-01T03:51:54.699Z,101394.06
2023-01-01T03:54:42.986Z,101387.84
2023-01-01T03:57:19.506Z,101387.09
2023-01-01T04:00:05.577Z,101382.63
2023-01-01T04:02:37.874Z,101388.69
2023-01-01T04:05:07.457Z,101379.72
2023-01-01T04:07:34.938Z,101387.69
2023-01-01T04:10:02.679Z,101385.06
2023-01-01T04:12:30.537Z,101383.28
2023-01-01T04:14:57.125Z,101393.97
2023-01-01T04:17:23.676Z,101388.69
2023-01-01T04:19:54.871Z,101385.94
2023-01-01T04:22:23.633Z,101390.28
2023-01-01T04:24:50.517Z,101398.19
2023-01-01T04:27:17.073Z,101388.41
2023-01-01T04:29:43.681Z,101389.16
2023-01-01T04:32:10.264Z,101384.75
2023-01-01T04:34:36.818Z,101388.16
2023-01-01T04:37:05.828Z,101381.97
2023-01-01T04:39:36.275Z,101378.69
2023-01-01T04:42:02.816Z,101377.84
2023-01-01T04:44:29.451Z,101373.41
2023-01-01T04:47:00.080Z,101373.50
2023-01-01T04:49:27.552Z,101378.03
2023-01-01T04:51:54.117Z,101380.69
2023-01-01T04:54:20.645Z,101379.00
2023-01-01T04:56:47.187Z,101392.28
2023-01-01T04:59:13.749Z,101390.53
2023-01-01T05:01:40.458Z,101398.31
2023-01-01T05:04:07.128Z,101395.66
2023-01-01T05:06:33.715Z,101400.88
2023-01-01T05:09:01.179Z,101394.63
2023-01-01T05:11:29.605Z,101387.47
2023-01-01T05:13:59.015Z,101390.09
2023-01-01T05:16:32.748Z,101386.56
2023-01-01T05:19:00.162Z,101384.75
2023-01-01T05:21:34.356Z,101388.25
2023-01-01T05:24:07.018Z,101391.75
2023-01-01T05:26:40.528Z,101381.84
2023-01-01T05:29:13.713Z,101377.31
2023-01-01T05:31:43.064Z,101390.47
2023-01-01T05:34:09.781Z,101393.88
2023-01-01T05:36:39.068Z,101392.94
2023-01-01T05:39:11.978Z,101392.91
2023-01-01T05:41:39.046Z,101402.53
2023-01-01T05:44:07.330Z,101409.75
2023-01-01T05:46:33.945Z,101405.41
2023-01-01T05:49:00.839Z,101397.50
2023-01-01T05:51:29.328Z,101403.66
2023-01-01T05:53:56.951Z,101403.72
2023-01-01T05:56:23.705Z,101398.53
2023-01-01T05:58:50.632Z,101402.13
2023-01-01T06:01:28.704Z,101421.56
2023-01-01T06:03:57.546Z,101424.16
2023-01-01T06:06:26.580Z,101421.50
2023-01-01T06:08:58.572Z,101433.03
2023-01-01T06:11:26.473Z,101427.81
2023-01-01T06:13:54.917Z,101436.81
2023-01-01T06:16:21.650Z,101445.75
2023-01-01T06:18:48.603Z,101444.94
2023-01-01T06:21:17.733Z,101448.56
2023-01-01T06:23:44.996Z,101461.84
2023-01-01T06:26:17.520Z,101462.69
2023-01-01T06:28:45.085Z,101477.72
2023-01-01T06:31:14.600Z,101482.91
2023-01-01T06:33:41.438Z,101483.75
2023-01-01T06:36:10.613Z,101483.69
2023-01-01T06:38:39.566Z,101485.41
2023-01-01T06:41:08.519Z,101486.31
2023-01-01T06:43:36.150Z,101483.78
2023-01-01T06:46:05.968Z,101484.75
2023-01-01T06:48:36.040Z,101497.06
2023-01-01T06:51:07.731Z,101497.06
2023-01-01T06:53:34.768Z,101495.25
2023-01-01T06:56:01.440Z,101499.66
2023-01-01T06:58:28.411Z,101508.41
2023-01-01T07:00:55.207Z,101500.34
2023-01-01T07:03:21.929Z,101510.88
2023-01-01T07:05:48.527Z,101502.88
2023-01-01T07:08:15.097Z,101499.19
2023-01-01T07:10:41.718Z,101491.22
2023-01-01T07:13:08.285Z,101495.53
2023-01-01T07:15:34.942Z,101491.94
2023-01-01T07:18:01.532Z,101481.19
2023-01-01T07:20:28.114Z,101488.16
2023-01-01T07:22:54.663Z,101477.47
2023-01-01T07:25:21.243Z,101487.06
2023-01-01T07:27:47.824Z,101484.28
2023-01-01T07:30:14.480Z,101493.75
2023-01-01T07:32:41.063Z,101480.25
2023-01-01T07:35:07.961Z,101484.47
2023-01-01T07:37:34.677Z,101490.47
2023-01-01T07:40:01.315Z,101481.38
2023-01-01T07:42:27.845Z,101482.97
2023-01-01T07:44:54.393Z,101484.56
2023-01-01T07:47:23.655Z,101483.50
2023-01-01T07:49:51.205Z,101495.59
2023-01-01T07:52:18.196Z,101490.88
2023-01-01T07:54:45.067Z,101487.00
2023-01-01T07:57:11.780Z,101499.06
2023-01-01T07:59:38.545Z,101505.91
2023-01-01T08:02:05.225Z,101516.25
2023-01-01T08:04:31.870Z,101516.03
2023-01-01T08:06:58.413Z,101508.63
2023-01-01T08:09:25.002Z,101519.81
2023-01-01T08:11:53.187Z,101530.97
2023-01-01T08:14:19.844Z,101527.97
2023-01-01T08:16:46.422Z,101518.78
2023-01-01T08:19:13.099Z,101524.63
2023-01-01T08:21:39.656Z,101530.56
2023-01-01T08:24:06.410Z,101535.59
2023-01-01T08:26:35.081Z,101544.13
2023-01-01T08:29:06.338Z,101539.34
2023-01-01T08:31:34.367Z,101533.53
2023-01-01T08:34:00.976Z,101538.41
2023-01-01T08:36:27.642Z,101530.84
2023-01-01T08:38:54.248Z,101538.22
2023-01-01T08:41:20.853Z,101539.50
2023-01-01T08:43:47.439Z,101529.25
2023-01-01T08:46:13.992Z,101538.44
2023-01-01T08:48:40.726Z,101530.78
2023-01-01T08:51:07.348Z,101532.69
2023-01-01T08:53:33.999Z,101531.97
2023-01-01T08:56:06.424Z,101525.84
2023-01-01T08:58:35.350Z,101525.09
2023-01-01T09:01:02.159Z,101524.28
2023-01-01T09:03:30.181Z,101525.28
2023-01-01T09:05:56.778Z,101523.59
2023-01-01T09:08:23.796Z,101517.41
2023-01-01T09:10:50.861Z,101517.63
2023-01-01T09:13:21.369Z,101517.63
2023-01-01T09:15:48.373Z,101523.88
2023-01-01T09:18:14.989Z,101519.44
2023-01-01T09:20:41.635Z,101526.06
2023-01-01T09:23:08.823Z,101523.38
2023-01-01T09:25:35.811Z,101525.28
2023-01-01T09:28:05.599Z,101515.97
2023-01-01T09:30:32.896Z,101515.66
2023-01-01T09:32:59.463Z,101522.44
2023-01-01T09:35:26.037Z,101517.63
2023-01-01T09:37:52.694Z,101517.56
2023-01-01T09:40:51.799Z,101515.59
2023-01-01T09:43:20.988Z,101519.53
2023-01-01T09:46:00.450Z,101511.31
2023-01-01T09:48:29.834Z,101510.91
2023-01-01T09:50:57.995Z,101504.84
2023-01-01T09:53:47.832Z,101504.41
2023-01-01T09:56:29.608Z,101501.44
2023-01-01T09:58:59.139Z,101499.31
2023-01-01T10:01:42.975Z,101500.81
2023-01-01T10:04:31.349Z,101507.09
2023-01-01T10:07:00.795Z,101505.38
2023-01-01T10:09:27.294Z,101507.38
2023-01-01T10:12:12.075Z,101503.09
2023-01-01T10:15:00.674Z,101506.56
2023-01-01T10:17:35.589Z,101512.34
2023-01-01T10:20:11.833Z,101507.00
2023-01-01T10:22:44.688Z,101503.13
2023-01-01T10:25:18.414Z,101500.66
2023-01-01T10:27:59.732Z,101490.91
2023-01-01T10:30:28.186Z,101492.88
2023-01-01T10:32:56.199Z,101491.88
2023-01-01T10:35:31.220Z,101493.34
2023-01-01T10:38:02.320Z,101482.47
2023-01-01T10:40:29.893Z,101480.41
2023-01-01T10:42:59.594Z,101484.00
2023-01-01T10:45:50.848Z,101470.91
2023-01-01T10:48:21.328Z,101471.59
2023-01-01T10:50:56.128Z,101479.03
2023-01-01T10:53:39.192Z,101474.56
2023-01-01T10:56:12.374Z,101473.00
2023-01-01T10:58:50.955Z,101465.56
2023-01-01T11:01:17.689Z,101466.31
2023-01-01T11:03:59.623Z,101458.00
2023-01-01T11:06:27.848Z,101449.25
2023-01-01T11:08:59.833Z,101434.69
2023-01-01T11:11:32.611Z,101437.97
2023-01-01T11:14:04.541Z,101428.50
2023-01-01T11:16:31.785Z,101427.63
2023-01-01T11:19:06.940Z,101413.09
2023-01-01T11:21:34.776Z,101411.13
2023-01-01T11:24:19.148Z,101401.84
2023-01-01T11:26:52.234Z,101397.56
2023-01-01T11:29:30.445Z,101407.13
2023-01-01T11:31:58.799Z,101413.28
2023-01-01T11:34:37.243Z,101426.28
2023-01-01T11:37:34.326Z,101427.91
2023-01-01T11:40:02.065Z,101432.81
2023-01-01T11:42:31.350Z,101430.75
2023-01-01T11:45:01.652Z,101424.50
2023-01-01T11:47:33.787Z,101424.81
2023-01-01T11:50:09.015Z,101414.53
2023-01-01T11:52:44.741Z,101407.56
2023-01-01T11:55:50.795Z,101415.72
2023-01-01T11:58:28.649Z,101407.25
2023-01-01T12:00:59.361Z,101414.75
2023-01-01T12:03:34.298Z,101411.00
2023-01-01T12:06:07.445Z,101397.72
2023-01-01T12:08:47.068Z,101404.78
2023-01-01T12:11:34.872Z,101401.22
2023-01-01T12:14:32.727Z,101407.03
2023-01-01T12:17:05.408Z,101403.69
2023-01-01T12:19:40.352Z,101395.72
2023-01-01T12:22:16.691Z,101393.38
2023-01-01T12:24:44.407Z,101387.94
2023-01-01T12:27:14.056Z,101397.03
2023-01-01T12:30:06.305Z,101381.09
2023-01-01T12:32:32.811Z,101377.78
2023-01-01T12:35:23.296Z,101364.44
2023-01-01T12:38:18.193Z,101363.41
2023-01-01T12:40:53.322Z,101356.50
2023-01-01T12:43:24.449Z,101359.41
2023-01-01T12:46:00.232Z,101357.50
2023-01-01T12:49:19.576Z,101362.75
2023-01-01T12:52:31.685Z,101370.41
2023-01-01T12:55:22.973Z,101372.75
2023-01-01T12:57:57.406Z,101365.81
2023-01-01T13:00:24.776Z,101371.59
2023-01-01T13:02:58.689Z,101373.31
2023-01-01T13:05:36.898Z,101372.09
2023-01-01T13:08:05.569Z,101368.91
2023-01-01T13:10:38.585Z,101371.97
2023-01-01T13:13:05.674Z,101369.69
2023-01-01T13:15:37.857Z,101379.03
2023-01-01T13:18:18.267Z,101378.94
2023-01-01T13:20:55.417Z,101383.91
2023-01-01T13:23:38.441Z,101383.47
2023-01-01T13:26:20.887Z,101400.38
2023-01-01T13:28:59.608Z,101401.22
2023-01-01T13:31:38.791Z,101399.09
2023-01-01T13:34:30.336Z,101403.03
2023-01-01T13:37:15.266Z,101398.19
2023-01-01T13:39:52.700Z,101399.44
2023-01-01T13:43:06.317Z,101410.28
2023-01-01T13:49:03.430Z,101431.38
2023-01-01T13:52:09.238Z,101428.44
2023-01-01T13:55:13.319Z,101421.66
2023-01-01T13:58:00.263Z,101414.34
2023-01-01T14:00:54.942Z,101426.97
2023-01-01T14:03:23.031Z,101434.16
2023-01-01T14:05:56.241Z,101426.47
2023-01-01T14:08:41.239Z,101440.25
2023-01-01T14:11:24.979Z,101435.88
2023-01-01T14:13:51.736Z,101436.69
2023-01-01T14:16:18.607Z,101437.16
2023-01-01T14:18:58.553Z,101428.88
2023-01-01T14:21:34.089Z,101433.88
2023-01-01T14:24:08.521Z,101441.09
2023-01-01T14:26:38.808Z,101433.56
2023-01-01T14:29:10.920Z,101443.59
2023-01-01T14:31:46.898Z,101434.44
2023-01-01T14:34:27.217Z,101432.16
2023-01-01T14:36:56.386Z,101437.88
2023-01-01T14:39:31.176Z,101445.63
2023-01-01T14:42:09.297Z,101445.09
2023-01-01T14:44:39.595Z,101444.63
2023-01-01T14:47:26.524Z,101439.59
2023-01-01T14:49:55.467Z,101440.09
2023-01-01T14:52:28.853Z,101433.44
2023-01-01T14:54:59.112Z,101436.41
2023-01-01T14:57:28.983Z,101435.88
2023-01-01T14:59:56.731Z,101433.72
2023-01-01T15:02:30.240Z,101438.94
2023-01-01T15:04:58.092Z,101441.06
2023-01-01T15:07:28.435Z,101439.53
2023-01-01T15:09:57.932Z,101445.13
2023-01-01T15:12:24.833Z,101438.41
2023-01-01T15:14:53.558Z,101444.09
2023-01-01T15:17:22.404Z,101448.72
2023-01-01T15:20:06.653Z,101453.53
2023-01-01T15:22:37.281Z,101463.41
2023-01-01T15:25:04.201Z,101455.00
2023-01-01T15:27:36.646Z,101449.72
2023-01-01T15:30:13.214Z,101454.91
2023-01-01T15:32:41.013Z,101452.97
2023-01-01T15:35:33.899Z,101469.97
2023-01-01T15:38:14.594Z,101473.88
2023-01-01T15:40:42.077Z,101471.97
2023-01-01T15:43:21.128Z,101468.41
2023-01-01T15:45:59.198Z,101474.94
2023-01-01T15:48:46.145Z,101472.06
2023-01-01T15:51:19.711Z,101473.03
2023-01-01T15:53:51.753Z,101480.22
2023-01-01T15:56:20.063Z,101477.53
2023-01-01T15:59:17.184Z,101480.41
2023-01-01T16:01:44.414Z,101483.00
2023-01-01T16:04:13.843Z,101483.28
2023-01-01T16:06:49.704Z,101488.66
2023-01-01T16:09:18.070Z,101486.72
2023-01-01T16:11:45.288Z,101483.09
2023-01-01T16:14:12.297Z,101483.22
2023-01-01T16:16:40.138Z,101483.22
2023-01-01T16:19:11.725Z,101490.38
2023-01-01T16:21:38.287Z,101479.84
2023-01-01T16:24:06.666Z,101495.19
2023-01-01T16:26:33.213Z,101493.47
2023-01-01T16:29:01.116Z,101490.03
2023-01-01T16:31:28.737Z,101495.56
2023-01-01T16:33:57.668Z,101497.50
2023-01-01T16:36:27.457Z,101496.63
2023-01-01T16:38:54.063Z,101506.31
2023-01-01T16:41:20.616Z,101504.59
2023-01-01T16:43:47.769Z,101500.09
2023-01-01T16:46:15.018Z,101504.69
2023-01-01T16:48:42.012Z,101507.38
2023-01-01T16:51:18.157Z,101505.66
2023-01-01T16:53:45.128Z,101511.88
2023-01-01T16:56:12.981Z,101518.00
2023-01-01T16:59:02.283Z,101520.69
2023-01-01T17:01:26.885Z,101515.41
2023-01-01T17:03:53.634Z,101509.09
2023-01-01T17:06:20.519Z,101506.31
2023-01-01T17:08:47.347Z,101500.75
2023-01-01T17:11:17.028Z,101509.56
2023-01-01T17:13:45.420Z,101507.63
2023-01-01T17:16:13.949Z,101511.28
2023-01-01T17:21:28.918Z,101512.25
2023-01-01T17:23:56.904Z,101518.69
2023-01-01T17:26:26.353Z,101515.25
2023-01-01T17:29:00.033Z,101518.69
2023-01-01T17:31:28.702Z,101513.41
2023-01-01T17:33:55.569Z,101515.34
2023-01-01T17:36:22.175Z,101502.88
2023-01-01T17:38:48.756Z,101511.78
2023-01-01T17:41:16.511Z,101514.44
2023-01-01T17:43:49.004Z,101510.06
2023-01-01T17:46:20.425Z,101507.38
2023-01-01T17:48:48.155Z,101518.97
2023-01-01T17:51:16.436Z,101511.78
2023-01-01T17:53:43.684Z,101511.88
2023-01-01T17:56:16.514Z,101519.72
2023-01-01T17:58:44.504Z,101511.78
2023-01-01T18:01:11.143Z,101518.88
2023-01-01T18:03:38.888Z,101523.47
2023-01-01T18:06:06.300Z,101527.78
2023-01-01T18:08:33.163Z,101515.34
2023-01-01T18:11:00.158Z,101519.66
2023-01-01T18:13:27.427Z,101519.56
2023-01-01T18:15:54.416Z,101522.13
2023-01-01T18:18:21.058Z,101523.00
2023-01-01T18:20:47.743Z,101526.56
2023-01-01T18:23:14.306Z,101522.03
2023-01-01T18:25:40.846Z,101525.59
2023-01-01T18:28:10.431Z,101521.06
2023-01-01T18:30:37.047Z,101522.91
2023-01-01T18:33:03.603Z,101517.72
2023-01-01T18:35:30.145Z,101526.66
2023-01-01T18:37:57.147Z,101523.09
2023-01-01T18:40:24.054Z,101517.72
2023-01-01T18:43:06.141Z,101525.88
2023-01-01T18:45:34.388Z,101526.72
2023-01-01T18:48:06.741Z,101525.00
2023-01-01T18:50:35.856Z,101525.78
2023-01-01T18:53:16.999Z,101526.72
2023-01-01T18:55:43.595Z,101519.56
2023-01-01T18:58:24.205Z,101533.81
2023-01-01T19:00:53.197Z,101532.00
2023-01-01T19:03:28.760Z,101532.75
2023-01-01T19:05:56.472Z,101530.97
2023-01-01T19:08:23.773Z,101525.69
2023-01-01T19:10:59.118Z,101531.06
2023-01-01T19:13:31.324Z,101524.94
2023-01-01T19:16:17.906Z,101520.53
2023-01-01T19:18:46.592Z,101518.97
2023-01-01T19:21:13.119Z,101524.34
2023-01-01T19:23:48.531Z,101519.06
2023-01-01T19:26:36.914Z,101510.13
2023-01-01T19:29:14.905Z,101515.50
2023-01-01T19:31:41.541Z,101520.13
2023-01-01T19:34:10.416Z,101514.84
2023-01-01T19:36:37.739Z,101520.13
2023-01-01T19:39:05.016Z,101520.03
2023-01-01T19:41:31.597Z,101515.63
2023-01-01T19:43:58.187Z,101505.84
2023-01-01T19:46:24.751Z,101509.59
2023-01-01T19:48:53.143Z,101507.75
2023-01-01T19:51:22.563Z,101499.78
2023-01-01T19:53:53.238Z,101502.47
2023-01-01T19:56:20.025Z,101498.94
2023-01-01T19:58:47.102Z,101498.94
2023-01-01T20:01:14.227Z,101505.06
2023-01-01T20:03:57.450Z,101504.31
2023-01-01T20:06:25.532Z,101494.53
2023-01-01T20:08:52.459Z,101502.59
2023-01-01T20:11:20.713Z,101501.78
2023-01-01T20:13:47.421Z,101504.56
2023-01-01T20:16:14.152Z,101513.47
2023-01-01T20:18:40.872Z,101509.94
2023-01-01T20:21:27.063Z,101509.06
2023-01-01T20:23:54.951Z,101505.41
2023-01-01T20:26:23.709Z,101511.00
2023-01-01T20:29:09.172Z,101508.09
2023-01-01T20:31:35.930Z,101503.69
2023-01-01T20:34:02.556Z,101517.22
2023-01-01T20:36:47.372Z,101521.63
2023-01-01T20:39:14.057Z,101511.84
2023-01-01T20:41:40.660Z,101506.47
2023-01-01T20:44:07.235Z,101505.81
2023-01-01T20:46:33.984Z,101502.16
2023-01-01T20:49:00.645Z,101503.13
2023-01-01T20:51:27.374Z,101508.50
2023-01-01T20:53:53.923Z,101511.25
2023-01-01T20:56:20.587Z,101510.31
2023-01-01T20:58:56.094Z,101504.19
2023-01-01T21:01:26.209Z,101511.25
2023-01-01T21:03:52.936Z,101504.09
2023-01-01T21:06:24.111Z,101500.53
2023-01-01T21:08:51.674Z,101496.88
2023-01-01T21:11:18.478Z,101503.13
2023-01-01T21:13:45.599Z,101498.72
2023-01-01T21:16:28.866Z,101504.00
2023-01-01T21:18:56.291Z,101507.63
2023-01-01T21:21:29.339Z,101502.38
2023-01-01T21:24:12.071Z,101505.81
2023-01-01T21:26:38.643Z,101507.53
2023-01-01T21:29:11.709Z,101506.56
2023-01-01T21:31:38.352Z,101511.84
2023-01-01T21:34:24.616Z,101511.00
2023-01-01T21:36:51.244Z,101503.78
2023-01-01T21:39:26.499Z,101507.44
2023-01-01T21:41:53.206Z,101506.69
2023-01-01T21:44:19.725Z,101492.69
2023-01-01T21:46:55.461Z,101502.47
2023-01-01T21:49:35.972Z,101506.38
2023-01-01T21:52:04.137Z,101495.94
2023-01-01T21:54:36.535Z,101505.91
2023-01-01T21:57:17.285Z,101499.75
2023-01-01T21:59:47.679Z,101494.59
2023-01-01T22:02:14.467Z,101497.56
2023-01-01T22:04:43.799Z,101493.34
2023-01-01T22:10:16.641Z,101491.41
2023-01-01T22:12:43.714Z,101490.06
2023-01-01T22:15:29.094Z,101493.00
2023-01-01T22:18:15.661Z,101493.47
2023-01-01T22:20:44.403Z,101494.69
2023-01-01T22:23:34.172Z,101492.28
2023-01-01T22:26:14.368Z,101489.97
2023-01-01T22:28:43.671Z,101496.47
2023-01-01T22:31:26.499Z,101485.91
2023-01-01T22:33:55.405Z,101479.09
2023-01-01T22:36:30.487Z,101480.34
2023-01-01T22:39:26.487Z,101476.38
2023-01-01T22:41:53.285Z,101467.75
2023-01-01T22:44:19.979Z,101464.38
2023-01-01T22:46:46.561Z,101476.22
2023-01-01T22:49:23.716Z,101463.78
2023-01-01T22:51:58.444Z,101467.31
2023-01-01T22:54:25.020Z,101470.00
2023-01-01T22:56:51.601Z,101466.34
2023-01-01T22:59:18.196Z,101464.84
2023-01-01T23:01:44.804Z,101466.56
2023-01-01T23:04:11.413Z,101453.31
2023-01-01T23:06:38.928Z,101453.59
2023-01-01T23:09:06.433Z,101444.13
2023-01-01T23:11:33.063Z,101448.78
2023-01-01T23:14:18.157Z,101451.63
2023-01-01T23:16:44.736Z,101457.34
2023-01-01T23:19:11.343Z,101457.69
2023-01-01T23:21:42.305Z,101450.84
2023-01-01T23:24:16.332Z,101448.44
2023-01-01T23:26:43.559Z,101448.63
2023-01-01T23:29:11.636Z,101441.63
2023-01-01T23:31:39.841Z,101442.56
2023-01-01T23:34:06.671Z,101444.47
2023-01-01T23:36:34.206Z,101440.06
2023-01-01T23:39:00.783Z,101440.22
2023-01-01T23:41:27.387Z,101437.03
2023-01-01T23:43:53.977Z,101437.28
2023-01-01T23:46:20.776Z,101433.00
2023-01-01T23:48:48.483Z,101429.50
2023-01-01T23:51:16.631Z,101423.41
2023-01-01T23:53:43.265Z,101429.50
2023-01-01T23:56:09.858Z,101429.59
2023-01-01T23:58:36.423Z,101419.84
